sensor_id;sensor_type;location;lat;lon;timestamp;temperature;humidity
22779;DHT22;11556;51.194;3.800;2022-12-29T00:01:18;11.90;99.90
22779;DHT22;11556;51.194;3.800;2022-12-29T00:03:46;11.90;99.90
22779;DHT22;11556;51.194;3.800;2022-12-29T00:06:11;11.90;99.90
22779;DHT22;11556;51.194;3.800;2022-12-29T00:08:37;11.90;99.90
22779;DHT22;11556;51.194;3.800;2022-12-29T00:11:07;12.00;99.90
22779;DHT22;11556;51.194;3.800;2022-12-29T00:13:34;12.10;99.90
22779;DHT22;11556;51.194;3.800;2022-12-29T00:16:18;12.10;99.90
22779;DHT22;11556;51.194;3.800;2022-12-29T00:18:44;12.10;99.90
22779;DHT22;11556;51.194;3.800;2022-12-29T00:21:17;12.20;99.90
22779;DHT22;11556;51.194;3.800;2022-12-29T00:24:02;12.10;99.90
22779;DHT22;11556;51.194;3.800;2022-12-29T00:27:09;12.00;99.90
22779;DHT22;11556;51.194;3.800;2022-12-29T00:29:51;12.00;99.90
22779;DHT22;11556;51.194;3.800;2022-12-29T00:32:36;11.90;99.90
22779;DHT22;11556;51.194;3.800;2022-12-29T00:35:33;11.90;99.90
22779;DHT22;11556;51.194;3.800;2022-12-29T00:38:03;11.90;99.90
22779;DHT22;11556;51.194;3.800;2022-12-29T00:40:48;12.00;99.90
22779;DHT22;11556;51.194;3.800;2022-12-29T00:43:32;12.10;99.90
22779;DHT22;11556;51.194;3.800;2022-12-29T00:46:16;12.20;99.90
22779;DHT22;11556;51.194;3.800;2022-12-29T00:48:42;12.20;99.90
22779;DHT22;11556;51.194;3.800;2022-12-29T00:51:26;12.20;99.90
22779;DHT22;11556;51.194;3.800;2022-12-29T00:53:51;12.20;99.90
22779;DHT22;11556;51.194;3.800;2022-12-29T00:56:17;12.20;99.90
22779;DHT22;11556;51.194;3.800;2022-12-29T00:58:42;12.20;99.90
22779;DHT22;11556;51.194;3.800;2022-12-29T01:01:08;12.20;99.90
22779;DHT22;11556;51.194;3.800;2022-12-29T01:03:35;12.20;99.90
22779;DHT22;11556;51.194;3.800;2022-12-29T01:06:02;12.20;99.90
22779;DHT22;11556;51.194;3.800;2022-12-29T01:08:29;12.10;99.90
22779;DHT22;11556;51.194;3.800;2022-12-29T01:11:02;12.00;99.90
22779;DHT22;11556;51.194;3.800;2022-12-29T01:13:28;11.90;99.90
22779;DHT22;11556;51.194;3.800;2022-12-29T01:15:54;11.80;99.90
22779;DHT22;11556;51.194;3.800;2022-12-29T01:18:20;11.90;99.90
22779;DHT22;11556;51.194;3.800;2022-12-29T01:20:46;11.90;99.90
22779;DHT22;11556;51.194;3.800;2022-12-29T01:23:12;12.00;99.90
22779;DHT22;11556;51.194;3.800;2022-12-29T01:25:37;12.00;99.90
22779;DHT22;11556;51.194;3.800;2022-12-29T01:28:03;11.90;99.90
22779;DHT22;11556;51.194;3.800;2022-12-29T01:30:29;12.00;99.90
22779;DHT22;11556;51.194;3.800;2022-12-29T01:32:55;12.00;99.90
22779;DHT22;11556;51.194;3.800;2022-12-29T01:35:20;12.00;99.90
22779;DHT22;11556;51.194;3.800;2022-12-29T01:37:46;12.10;99.90
22779;DHT22;11556;51.194;3.800;2022-12-29T01:40:12;12.10;99.90
22779;DHT22;11556;51.194;3.800;2022-12-29T01:42:37;12.10;99.90
22779;DHT22;11556;51.194;3.800;2022-12-29T01:45:09;12.10;99.90
22779;DHT22;11556;51.194;3.800;2022-12-29T01:50:10;12.20;99.90
22779;DHT22;11556;51.194;3.800;2022-12-29T01:52:40;12.30;99.90
22779;DHT22;11556;51.194;3.800;2022-12-29T01:55:09;12.30;99.90
22779;DHT22;11556;51.194;3.800;2022-12-29T01:57:39;12.30;99.90
22779;DHT22;11556;51.194;3.800;2022-12-29T02:00:09;12.30;99.90
22779;DHT22;11556;51.194;3.800;2022-12-29T02:02:35;12.30;99.90
22779;DHT22;11556;51.194;3.800;2022-12-29T02:05:07;12.30;99.90
22779;DHT22;11556;51.194;3.800;2022-12-29T02:07:35;12.30;99.90
22779;DHT22;11556;51.194;3.800;2022-12-29T02:10:01;12.40;99.90
22779;DHT22;11556;51.194;3.800;2022-12-29T02:12:27;12.30;99.90
22779;DHT22;11556;51.194;3.800;2022-12-29T02:14:59;12.40;99.90
22779;DHT22;11556;51.194;3.800;2022-12-29T02:28:59;12.40;99.90
22779;DHT22;11556;51.194;3.800;2022-12-29T02:32:44;12.30;99.90
22779;DHT22;11556;51.194;3.800;2022-12-29T02:38:10;12.20;99.90
22779;DHT22;11556;51.194;3.800;2022-12-29T02:41:10;12.20;99.90
22779;DHT22;11556;51.194;3.800;2022-12-29T02:44:12;12.10;99.90
22779;DHT22;11556;51.194;3.800;2022-12-29T02:46:54;11.90;99.90
22779;DHT22;11556;51.194;3.800;2022-12-29T02:52:46;11.90;99.90
22779;DHT22;11556;51.194;3.800;2022-12-29T02:55:13;11.90;99.90
22779;DHT22;11556;51.194;3.800;2022-12-29T02:57:39;12.10;99.90
22779;DHT22;11556;51.194;3.800;2022-12-29T03:03:11;11.70;99.90
22779;DHT22;11556;51.194;3.800;2022-12-29T03:08:59;11.40;99.90
22779;DHT22;11556;51.194;3.800;2022-12-29T03:11:33;11.20;99.90
22779;DHT22;11556;51.194;3.800;2022-12-29T03:20:07;11.10;99.90
22779;DHT22;11556;51.194;3.800;2022-12-29T03:22:34;11.00;99.90
22779;DHT22;11556;51.194;3.800;2022-12-29T03:25:10;10.90;99.90
22779;DHT22;11556;51.194;3.800;2022-12-29T03:27:42;10.80;99.90
22779;DHT22;11556;51.194;3.800;2022-12-29T03:30:10;10.70;99.90
22779;DHT22;11556;51.194;3.800;2022-12-29T03:32:42;10.70;99.90
22779;DHT22;11556;51.194;3.800;2022-12-29T03:35:11;10.70;99.90
22779;DHT22;11556;51.194;3.800;2022-12-29T03:37:41;10.60;99.90
22779;DHT22;11556;51.194;3.800;2022-12-29T03:40:09;10.60;99.90
22779;DHT22;11556;51.194;3.800;2022-12-29T03:42:36;10.70;99.90
22779;DHT22;11556;51.194;3.800;2022-12-29T03:45:05;10.70;99.90
22779;DHT22;11556;51.194;3.800;2022-12-29T03:47:31;10.70;99.90
22779;DHT22;11556;51.194;3.800;2022-12-29T03:49:57;10.90;99.90
22779;DHT22;11556;51.194;3.800;2022-12-29T03:52:22;10.90;99.90
22779;DHT22;11556;51.194;3.800;2022-12-29T03:54:48;10.90;99.90
22779;DHT22;11556;51.194;3.800;2022-12-29T03:57:13;11.10;99.90
22779;DHT22;11556;51.194;3.800;2022-12-29T03:59:39;11.10;99.90
22779;DHT22;11556;51.194;3.800;2022-12-29T04:02:05;11.10;99.90
22779;DHT22;11556;51.194;3.800;2022-12-29T04:04:30;11.20;99.90
22779;DHT22;11556;51.194;3.800;2022-12-29T04:06:56;11.30;99.90
22779;DHT22;11556;51.194;3.800;2022-12-29T04:09:21;11.30;99.90
22779;DHT22;11556;51.194;3.800;2022-12-29T04:11:47;11.30;99.90
22779;DHT22;11556;51.194;3.800;2022-12-29T04:14:14;11.30;99.90
22779;DHT22;11556;51.194;3.800;2022-12-29T04:16:39;11.20;99.90
22779;DHT22;11556;51.194;3.800;2022-12-29T04:19:06;11.40;99.90
22779;DHT22;11556;51.194;3.800;2022-12-29T04:21:32;11.30;99.90
22779;DHT22;11556;51.194;3.800;2022-12-29T04:23:58;11.30;99.90
22779;DHT22;11556;51.194;3.800;2022-12-29T04:26:24;11.30;99.90
22779;DHT22;11556;51.194;3.800;2022-12-29T04:28:49;11.30;99.90
22779;DHT22;11556;51.194;3.800;2022-12-29T04:31:15;11.30;99.90
22779;DHT22;11556;51.194;3.800;2022-12-29T04:33:40;11.10;99.90
22779;DHT22;11556;51.194;3.800;2022-12-29T04:36:06;11.10;99.90
22779;DHT22;11556;51.194;3.800;2022-12-29T04:38:32;11.10;99.90
22779;DHT22;11556;51.194;3.800;2022-12-29T04:41:00;11.00;99.90
22779;DHT22;11556;51.194;3.800;2022-12-29T04:43:26;11.00;99.90
22779;DHT22;11556;51.194;3.800;2022-12-29T04:45:51;11.00;99.90
22779;DHT22;11556;51.194;3.800;2022-12-29T04:48:17;11.00;99.90
22779;DHT22;11556;51.194;3.800;2022-12-29T04:50:43;11.10;99.90
22779;DHT22;11556;51.194;3.800;2022-12-29T04:53:09;11.10;99.90
22779;DHT22;11556;51.194;3.800;2022-12-29T04:55:35;11.20;99.90
22779;DHT22;11556;51.194;3.800;2022-12-29T04:58:01;11.20;99.90
22779;DHT22;11556;51.194;3.800;2022-12-29T05:00:27;11.20;99.90
22779;DHT22;11556;51.194;3.800;2022-12-29T05:02:52;11.30;99.90
22779;DHT22;11556;51.194;3.800;2022-12-29T05:05:18;11.30;99.90
22779;DHT22;11556;51.194;3.800;2022-12-29T05:07:44;11.30;99.90
22779;DHT22;11556;51.194;3.800;2022-12-29T05:10:11;11.40;99.90
22779;DHT22;11556;51.194;3.800;2022-12-29T05:12:38;11.20;99.90
22779;DHT22;11556;51.194;3.800;2022-12-29T05:15:05;11.30;99.90
22779;DHT22;11556;51.194;3.800;2022-12-29T05:17:31;11.30;99.90
22779;DHT22;11556;51.194;3.800;2022-12-29T05:19:57;11.20;99.90
22779;DHT22;11556;51.194;3.800;2022-12-29T05:22:23;11.20;99.90
22779;DHT22;11556;51.194;3.800;2022-12-29T05:24:48;11.30;99.90
22779;DHT22;11556;51.194;3.800;2022-12-29T05:27:14;11.40;99.90
22779;DHT22;11556;51.194;3.800;2022-12-29T05:29:40;11.30;99.90
22779;DHT22;11556;51.194;3.800;2022-12-29T05:32:05;11.20;99.90
22779;DHT22;11556;51.194;3.800;2022-12-29T05:34:31;11.10;99.90
22779;DHT22;11556;51.194;3.800;2022-12-29T05:36:57;11.10;99.90
22779;DHT22;11556;51.194;3.800;2022-12-29T05:39:23;11.20;99.90
22779;DHT22;11556;51.194;3.800;2022-12-29T05:41:48;11.10;99.90
22779;DHT22;11556;51.194;3.800;2022-12-29T05:44:14;11.30;99.90
22779;DHT22;11556;51.194;3.800;2022-12-29T05:46:40;11.30;99.90
22779;DHT22;11556;51.194;3.800;2022-12-29T05:49:06;11.40;99.90
22779;DHT22;11556;51.194;3.800;2022-12-29T05:51:31;11.30;99.90
22779;DHT22;11556;51.194;3.800;2022-12-29T05:53:57;11.40;99.90
22779;DHT22;11556;51.194;3.800;2022-12-29T05:56:23;11.40;99.90
22779;DHT22;11556;51.194;3.800;2022-12-29T05:58:48;11.30;99.90
22779;DHT22;11556;51.194;3.800;2022-12-29T06:01:14;11.30;99.90
22779;DHT22;11556;51.194;3.800;2022-12-29T06:03:40;11.30;99.90
22779;DHT22;11556;51.194;3.800;2022-12-29T06:06:05;11.40;99.90
22779;DHT22;11556;51.194;3.800;2022-12-29T06:08:31;11.40;99.90
22779;DHT22;11556;51.194;3.800;2022-12-29T06:10:56;11.30;99.90
22779;DHT22;11556;51.194;3.800;2022-12-29T06:13:22;11.20;99.90
22779;DHT22;11556;51.194;3.800;2022-12-29T06:15:48;11.30;99.90
22779;DHT22;11556;51.194;3.800;2022-12-29T06:18:15;11.30;99.90
22779;DHT22;11556;51.194;3.800;2022-12-29T06:20:40;11.30;99.90
22779;DHT22;11556;51.194;3.800;2022-12-29T06:23:06;11.30;99.90
22779;DHT22;11556;51.194;3.800;2022-12-29T06:25:32;11.30;99.90
22779;DHT22;11556;51.194;3.800;2022-12-29T06:27:59;11.20;99.90
22779;DHT22;11556;51.194;3.800;2022-12-29T06:30:25;11.20;99.90
22779;DHT22;11556;51.194;3.800;2022-12-29T06:32:51;11.30;99.90
22779;DHT22;11556;51.194;3.800;2022-12-29T06:35:16;11.20;99.90
22779;DHT22;11556;51.194;3.800;2022-12-29T06:37:42;11.20;99.90
22779;DHT22;11556;51.194;3.800;2022-12-29T06:40:09;11.40;99.90
22779;DHT22;11556;51.194;3.800;2022-12-29T06:42:35;11.30;99.90
22779;DHT22;11556;51.194;3.800;2022-12-29T06:45:01;11.20;99.90
22779;DHT22;11556;51.194;3.800;2022-12-29T06:47:27;11.20;99.90
22779;DHT22;11556;51.194;3.800;2022-12-29T06:49:52;11.10;99.90
22779;DHT22;11556;51.194;3.800;2022-12-29T06:52:18;10.90;99.90
22779;DHT22;11556;51.194;3.800;2022-12-29T06:54:43;10.70;99.90
22779;DHT22;11556;51.194;3.800;2022-12-29T06:57:09;10.50;99.90
22779;DHT22;11556;51.194;3.800;2022-12-29T06:59:34;10.30;99.90
22779;DHT22;11556;51.194;3.800;2022-12-29T07:02:00;10.20;99.90
22779;DHT22;11556;51.194;3.800;2022-12-29T07:04:27;10.10;99.90
22779;DHT22;11556;51.194;3.800;2022-12-29T07:06:53;10.00;99.90
22779;DHT22;11556;51.194;3.800;2022-12-29T07:09:19;10.00;99.90
22779;DHT22;11556;51.194;3.800;2022-12-29T07:11:44;10.20;99.90
22779;DHT22;11556;51.194;3.800;2022-12-29T07:14:11;10.30;99.90
22779;DHT22;11556;51.194;3.800;2022-12-29T07:16:36;10.30;99.90
22779;DHT22;11556;51.194;3.800;2022-12-29T07:19:02;10.50;99.90
22779;DHT22;11556;51.194;3.800;2022-12-29T07:21:28;10.60;99.90
22779;DHT22;11556;51.194;3.800;2022-12-29T07:23:54;10.60;99.90
22779;DHT22;11556;51.194;3.800;2022-12-29T07:26:20;10.80;99.90
22779;DHT22;11556;51.194;3.800;2022-12-29T07:28:46;10.80;99.90
22779;DHT22;11556;51.194;3.800;2022-12-29T07:31:15;10.90;99.90
22779;DHT22;11556;51.194;3.800;2022-12-29T07:33:42;11.00;99.90
22779;DHT22;11556;51.194;3.800;2022-12-29T07:36:09;11.10;99.90
22779;DHT22;11556;51.194;3.800;2022-12-29T07:38:34;11.10;99.90
22779;DHT22;11556;51.194;3.800;2022-12-29T07:41:00;11.20;99.90
22779;DHT22;11556;51.194;3.800;2022-12-29T07:43:26;11.20;99.90
22779;DHT22;11556;51.194;3.800;2022-12-29T07:45:51;11.20;99.90
22779;DHT22;11556;51.194;3.800;2022-12-29T07:48:17;11.10;99.90
22779;DHT22;11556;51.194;3.800;2022-12-29T07:50:42;11.20;99.90
22779;DHT22;11556;51.194;3.800;2022-12-29T07:53:08;11.10;99.90
22779;DHT22;11556;51.194;3.800;2022-12-29T07:55:34;11.20;99.90
22779;DHT22;11556;51.194;3.800;2022-12-29T07:57:59;11.10;99.90
22779;DHT22;11556;51.194;3.800;2022-12-29T08:00:25;11.00;99.90
22779;DHT22;11556;51.194;3.800;2022-12-29T08:02:51;10.80;99.90
22779;DHT22;11556;51.194;3.800;2022-12-29T08:05:16;10.80;99.90
22779;DHT22;11556;51.194;3.800;2022-12-29T08:07:43;10.60;99.90
22779;DHT22;11556;51.194;3.800;2022-12-29T08:10:09;10.50;99.90
22779;DHT22;11556;51.194;3.800;2022-12-29T08:12:37;10.40;99.90
22779;DHT22;11556;51.194;3.800;2022-12-29T08:15:02;10.30;99.90
22779;DHT22;11556;51.194;3.800;2022-12-29T08:17:28;10.20;99.90
22779;DHT22;11556;51.194;3.800;2022-12-29T08:19:54;10.20;99.90
22779;DHT22;11556;51.194;3.800;2022-12-29T08:22:19;10.10;99.90
22779;DHT22;11556;51.194;3.800;2022-12-29T08:24:45;10.10;99.90
22779;DHT22;11556;51.194;3.800;2022-12-29T08:27:10;10.00;99.90
22779;DHT22;11556;51.194;3.800;2022-12-29T08:29:36;9.90;99.90
22779;DHT22;11556;51.194;3.800;2022-12-29T08:32:02;10.00;99.90
22779;DHT22;11556;51.194;3.800;2022-12-29T08:34:27;9.80;99.90
22779;DHT22;11556;51.194;3.800;2022-12-29T08:36:53;9.80;99.90
22779;DHT22;11556;51.194;3.800;2022-12-29T08:39:18;9.80;99.90
22779;DHT22;11556;51.194;3.800;2022-12-29T08:41:44;9.80;99.90
22779;DHT22;11556;51.194;3.800;2022-12-29T08:44:09;9.80;99.90
22779;DHT22;11556;51.194;3.800;2022-12-29T08:46:35;9.70;99.90
22779;DHT22;11556;51.194;3.800;2022-12-29T08:49:01;9.70;99.90
22779;DHT22;11556;51.194;3.800;2022-12-29T08:51:26;9.70;99.90
22779;DHT22;11556;51.194;3.800;2022-12-29T08:53:52;9.70;99.90
22779;DHT22;11556;51.194;3.800;2022-12-29T08:56:17;9.80;99.90
22779;DHT22;11556;51.194;3.800;2022-12-29T08:58:43;9.80;99.90
22779;DHT22;11556;51.194;3.800;2022-12-29T09:01:09;9.80;99.90
22779;DHT22;11556;51.194;3.800;2022-12-29T09:03:35;9.90;99.90
22779;DHT22;11556;51.194;3.800;2022-12-29T09:06:01;9.90;99.90
22779;DHT22;11556;51.194;3.800;2022-12-29T09:08:26;9.80;99.90
22779;DHT22;11556;51.194;3.800;2022-12-29T09:10:52;9.90;99.90
22779;DHT22;11556;51.194;3.800;2022-12-29T09:13:18;9.90;99.90
22779;DHT22;11556;51.194;3.800;2022-12-29T09:15:43;9.90;99.90
22779;DHT22;11556;51.194;3.800;2022-12-29T09:18:10;9.90;99.90
22779;DHT22;11556;51.194;3.800;2022-12-29T09:20:36;9.90;99.90
22779;DHT22;11556;51.194;3.800;2022-12-29T09:23:02;9.90;99.90
22779;DHT22;11556;51.194;3.800;2022-12-29T09:25:29;9.90;99.90
22779;DHT22;11556;51.194;3.800;2022-12-29T09:27:55;9.90;99.90
22779;DHT22;11556;51.194;3.800;2022-12-29T09:30:22;10.10;99.90
22779;DHT22;11556;51.194;3.800;2022-12-29T09:32:48;10.10;99.90
22779;DHT22;11556;51.194;3.800;2022-12-29T09:35:14;10.10;99.90
22779;DHT22;11556;51.194;3.800;2022-12-29T09:37:40;10.20;99.90
22779;DHT22;11556;51.194;3.800;2022-12-29T09:40:09;10.30;99.90
22779;DHT22;11556;51.194;3.800;2022-12-29T09:43:01;10.30;99.90
22779;DHT22;11556;51.194;3.800;2022-12-29T09:45:42;10.30;99.90
22779;DHT22;11556;51.194;3.800;2022-12-29T09:48:18;10.30;99.90
22779;DHT22;11556;51.194;3.800;2022-12-29T09:50:49;10.30;99.90
22779;DHT22;11556;51.194;3.800;2022-12-29T09:53:28;10.40;99.90
22779;DHT22;11556;51.194;3.800;2022-12-29T09:55:59;10.50;99.90
22779;DHT22;11556;51.194;3.800;2022-12-29T09:58:36;10.60;99.90
22779;DHT22;11556;51.194;3.800;2022-12-29T10:03:48;10.90;99.90
22779;DHT22;11556;51.194;3.800;2022-12-29T10:06:20;11.00;99.90
22779;DHT22;11556;51.194;3.800;2022-12-29T10:14:55;10.80;99.90
22779;DHT22;11556;51.194;3.800;2022-12-29T10:17:29;10.80;99.90
22779;DHT22;11556;51.194;3.800;2022-12-29T10:20:18;10.80;99.90
22779;DHT22;11556;51.194;3.800;2022-12-29T10:25:43;10.70;99.90
22779;DHT22;11556;51.194;3.800;2022-12-29T10:28:21;10.90;99.90
22779;DHT22;11556;51.194;3.800;2022-12-29T10:30:48;11.10;99.90
22779;DHT22;11556;51.194;3.800;2022-12-29T10:33:21;11.50;99.90
22779;DHT22;11556;51.194;3.800;2022-12-29T10:35:50;11.80;99.90
22779;DHT22;11556;51.194;3.800;2022-12-29T10:38:25;11.90;99.90
22779;DHT22;11556;51.194;3.800;2022-12-29T10:41:18;12.00;99.90
22779;DHT22;11556;51.194;3.800;2022-12-29T10:43:51;12.30;99.90
22779;DHT22;11556;51.194;3.800;2022-12-29T10:46:24;12.40;99.90
22779;DHT22;11556;51.194;3.800;2022-12-29T10:48:50;12.50;99.90
22779;DHT22;11556;51.194;3.800;2022-12-29T10:51:21;12.60;99.90
22779;DHT22;11556;51.194;3.800;2022-12-29T10:53:55;12.70;99.90
22779;DHT22;11556;51.194;3.800;2022-12-29T10:56:50;12.90;99.90
22779;DHT22;11556;51.194;3.800;2022-12-29T10:59:24;12.80;99.90
22779;DHT22;11556;51.194;3.800;2022-12-29T11:07:07;12.50;99.90
22779;DHT22;11556;51.194;3.800;2022-12-29T11:09:36;12.30;99.90
22779;DHT22;11556;51.194;3.800;2022-12-29T11:12:22;12.20;99.90
22779;DHT22;11556;51.194;3.800;2022-12-29T11:15:02;12.20;99.90
22779;DHT22;11556;51.194;3.800;2022-12-29T11:20:31;12.00;99.90
22779;DHT22;11556;51.194;3.800;2022-12-29T11:22:57;11.80;99.90
22779;DHT22;11556;51.194;3.800;2022-12-29T11:25:23;11.80;99.90
22779;DHT22;11556;51.194;3.800;2022-12-29T11:28:12;11.90;99.90
22779;DHT22;11556;51.194;3.800;2022-12-29T11:30:39;12.10;99.90
22779;DHT22;11556;51.194;3.800;2022-12-29T11:33:05;12.00;99.90
22779;DHT22;11556;51.194;3.800;2022-12-29T11:35:32;11.80;99.90
22779;DHT22;11556;51.194;3.800;2022-12-29T11:37:58;11.80;99.90
22779;DHT22;11556;51.194;3.800;2022-12-29T11:40:25;11.60;99.90
22779;DHT22;11556;51.194;3.800;2022-12-29T11:42:57;11.30;99.90
22779;DHT22;11556;51.194;3.800;2022-12-29T11:45:29;11.20;99.90
22779;DHT22;11556;51.194;3.800;2022-12-29T11:47:59;11.30;99.90
22779;DHT22;11556;51.194;3.800;2022-12-29T11:50:29;11.30;99.90
22779;DHT22;11556;51.194;3.800;2022-12-29T11:53:03;11.30;99.90
22779;DHT22;11556;51.194;3.800;2022-12-29T11:55:29;11.20;99.90
22779;DHT22;11556;51.194;3.800;2022-12-29T11:57:58;11.10;99.90
22779;DHT22;11556;51.194;3.800;2022-12-29T12:00:24;11.10;99.90
22779;DHT22;11556;51.194;3.800;2022-12-29T12:03:18;11.00;99.90
22779;DHT22;11556;51.194;3.800;2022-12-29T12:05:53;11.00;99.90
22779;DHT22;11556;51.194;3.800;2022-12-29T12:13:58;11.10;99.90
22779;DHT22;11556;51.194;3.800;2022-12-29T12:16:31;11.20;99.90
22779;DHT22;11556;51.194;3.800;2022-12-29T12:22:01;11.10;99.90
22779;DHT22;11556;51.194;3.800;2022-12-29T12:25:09;11.00;99.90
22779;DHT22;11556;51.194;3.800;2022-12-29T12:27:31;11.20;99.90
22779;DHT22;11556;51.194;3.800;2022-12-29T12:30:10;11.10;99.90
22779;DHT22;11556;51.194;3.800;2022-12-29T12:32:41;11.10;99.90
22779;DHT22;11556;51.194;3.800;2022-12-29T12:35:14;11.20;99.90
22779;DHT22;11556;51.194;3.800;2022-12-29T12:38:22;11.20;99.90
22779;DHT22;11556;51.194;3.800;2022-12-29T12:41:09;11.30;99.90
22779;DHT22;11556;51.194;3.800;2022-12-29T12:46:34;11.70;99.90
22779;DHT22;11556;51.194;3.800;2022-12-29T12:55:28;11.70;99.90
22779;DHT22;11556;51.194;3.800;2022-12-29T13:01:06;11.80;99.90
22779;DHT22;11556;51.194;3.800;2022-12-29T13:06:50;11.70;99.90
22779;DHT22;11556;51.194;3.800;2022-12-29T13:18:21;11.40;99.90
22779;DHT22;11556;51.194;3.800;2022-12-29T13:21:07;11.40;99.90
22779;DHT22;11556;51.194;3.800;2022-12-29T13:23:49;11.50;99.90
22779;DHT22;11556;51.194;3.800;2022-12-29T13:26:36;11.40;99.90
22779;DHT22;11556;51.194;3.800;2022-12-29T13:29:16;11.30;99.90
22779;DHT22;11556;51.194;3.800;2022-12-29T13:37:18;11.30;99.90
22779;DHT22;11556;51.194;3.800;2022-12-29T13:39:52;11.10;99.90
22779;DHT22;11556;51.194;3.800;2022-12-29T13:42:21;11.00;99.90
22779;DHT22;11556;51.194;3.800;2022-12-29T13:45:12;10.90;99.90
22779;DHT22;11556;51.194;3.800;2022-12-29T13:47:55;10.80;99.90
22779;DHT22;11556;51.194;3.800;2022-12-29T13:50:25;10.70;99.90
22779;DHT22;11556;51.194;3.800;2022-12-29T13:53:06;10.70;99.90
22779;DHT22;11556;51.194;3.800;2022-12-29T13:55:53;10.60;99.90
22779;DHT22;11556;51.194;3.800;2022-12-29T13:58:28;10.50;99.90
22779;DHT22;11556;51.194;3.800;2022-12-29T14:01:18;10.50;99.90
22779;DHT22;11556;51.194;3.800;2022-12-29T14:03:54;10.50;99.90
22779;DHT22;11556;51.194;3.800;2022-12-29T14:06:22;10.50;99.90
22779;DHT22;11556;51.194;3.800;2022-12-29T14:09:05;10.50;99.90
22779;DHT22;11556;51.194;3.800;2022-12-29T14:11:33;10.50;99.90
22779;DHT22;11556;51.194;3.800;2022-12-29T14:14:20;10.60;99.90
22779;DHT22;11556;51.194;3.800;2022-12-29T14:16:47;10.60;99.90
22779;DHT22;11556;51.194;3.800;2022-12-29T14:19:25;10.50;99.90
22779;DHT22;11556;51.194;3.800;2022-12-29T14:22:01;10.30;99.90
22779;DHT22;11556;51.194;3.800;2022-12-29T14:27:51;10.10;99.90
22779;DHT22;11556;51.194;3.800;2022-12-29T14:29:50;10.10;99.90
22779;DHT22;11556;51.194;3.800;2022-12-29T14:35:00;10.50;99.90
22779;DHT22;11556;51.194;3.800;2022-12-29T14:37:45;10.60;99.90
22779;DHT22;11556;51.194;3.800;2022-12-29T14:42:40;10.60;99.90
22779;DHT22;11556;51.194;3.800;2022-12-29T14:45:29;10.40;99.90
22779;DHT22;11556;51.194;3.800;2022-12-29T14:47:55;10.50;99.90
22779;DHT22;11556;51.194;3.800;2022-12-29T14:50:41;10.50;99.90
22779;DHT22;11556;51.194;3.800;2022-12-29T14:56:04;10.30;99.90
22779;DHT22;11556;51.194;3.800;2022-12-29T14:59:23;10.10;99.90
22779;DHT22;11556;51.194;3.800;2022-12-29T15:01:39;10.20;99.90
22779;DHT22;11556;51.194;3.800;2022-12-29T15:04:20;10.20;99.90
22779;DHT22;11556;51.194;3.800;2022-12-29T15:06:49;10.20;99.90
22779;DHT22;11556;51.194;3.800;2022-12-29T15:09:27;10.10;99.90
22779;DHT22;11556;51.194;3.800;2022-12-29T15:12:13;10.10;99.90
22779;DHT22;11556;51.194;3.800;2022-12-29T15:15:00;10.10;99.90
22779;DHT22;11556;51.194;3.800;2022-12-29T15:17:32;10.00;99.90
22779;DHT22;11556;51.194;3.800;2022-12-29T15:20:02;10.00;99.90
22779;DHT22;11556;51.194;3.800;2022-12-29T15:22:44;10.00;99.90
22779;DHT22;11556;51.194;3.800;2022-12-29T15:25:16;10.00;99.90
22779;DHT22;11556;51.194;3.800;2022-12-29T15:27:43;10.00;99.90
22779;DHT22;11556;51.194;3.800;2022-12-29T15:30:13;10.00;99.90
22779;DHT22;11556;51.194;3.800;2022-12-29T15:32:42;9.90;99.90
22779;DHT22;11556;51.194;3.800;2022-12-29T15:37:57;9.80;99.90
22779;DHT22;11556;51.194;3.800;2022-12-29T15:40:29;9.70;99.90
22779;DHT22;11556;51.194;3.800;2022-12-29T15:43:21;9.70;99.90
22779;DHT22;11556;51.194;3.800;2022-12-29T15:45:49;9.60;99.90
22779;DHT22;11556;51.194;3.800;2022-12-29T15:48:21;9.50;99.90
22779;DHT22;11556;51.194;3.800;2022-12-29T15:50:48;9.50;99.90
22779;DHT22;11556;51.194;3.800;2022-12-29T15:53:33;9.50;99.90
22779;DHT22;11556;51.194;3.800;2022-12-29T15:56:02;9.60;99.90
22779;DHT22;11556;51.194;3.800;2022-12-29T15:58:32;9.50;99.90
22779;DHT22;11556;51.194;3.800;2022-12-29T16:01:04;9.50;99.90
22779;DHT22;11556;51.194;3.800;2022-12-29T16:03:33;9.50;99.90
22779;DHT22;11556;51.194;3.800;2022-12-29T16:06:35;9.50;99.90
22779;DHT22;11556;51.194;3.800;2022-12-29T16:09:06;9.40;99.90
22779;DHT22;11556;51.194;3.800;2022-12-29T16:11:37;9.40;99.90
22779;DHT22;11556;51.194;3.800;2022-12-29T16:14:17;9.30;99.90
22779;DHT22;11556;51.194;3.800;2022-12-29T16:16:45;9.30;99.90
22779;DHT22;11556;51.194;3.800;2022-12-29T16:19:32;9.20;99.90
22779;DHT22;11556;51.194;3.800;2022-12-29T16:22:00;9.20;99.90
22779;DHT22;11556;51.194;3.800;2022-12-29T16:24:31;9.20;99.90
22779;DHT22;11556;51.194;3.800;2022-12-29T16:27:10;9.10;99.90
22779;DHT22;11556;51.194;3.800;2022-12-29T16:29:39;9.00;99.90
22779;DHT22;11556;51.194;3.800;2022-12-29T16:34:49;8.80;99.90
22779;DHT22;11556;51.194;3.800;2022-12-29T16:37:29;8.90;99.90
22779;DHT22;11556;51.194;3.800;2022-12-29T16:39:55;9.00;99.90
22779;DHT22;11556;51.194;3.800;2022-12-29T16:45:34;8.80;99.90
22779;DHT22;11556;51.194;3.800;2022-12-29T16:50:34;8.80;99.90
22779;DHT22;11556;51.194;3.800;2022-12-29T16:53:00;8.80;99.90
22779;DHT22;11556;51.194;3.800;2022-12-29T16:55:26;8.80;99.90
22779;DHT22;11556;51.194;3.800;2022-12-29T16:57:53;8.80;99.90
22779;DHT22;11556;51.194;3.800;2022-12-29T17:00:23;8.80;99.90
22779;DHT22;11556;51.194;3.800;2022-12-29T17:02:51;8.70;99.90
22779;DHT22;11556;51.194;3.800;2022-12-29T17:05:18;8.80;99.90
22779;DHT22;11556;51.194;3.800;2022-12-29T17:07:45;8.80;99.90
22779;DHT22;11556;51.194;3.800;2022-12-29T17:10:11;8.70;99.90
22779;DHT22;11556;51.194;3.800;2022-12-29T17:12:38;8.70;99.90
22779;DHT22;11556;51.194;3.800;2022-12-29T17:15:13;8.70;99.90
22779;DHT22;11556;51.194;3.800;2022-12-29T17:22:39;8.80;99.90
22779;DHT22;11556;51.194;3.800;2022-12-29T17:25:05;8.80;99.90
22779;DHT22;11556;51.194;3.800;2022-12-29T17:27:36;8.80;99.90
22779;DHT22;11556;51.194;3.800;2022-12-29T17:32:36;8.80;99.90
22779;DHT22;11556;51.194;3.800;2022-12-29T17:35:02;8.80;99.90
22779;DHT22;11556;51.194;3.800;2022-12-29T17:37:31;8.80;99.90
22779;DHT22;11556;51.194;3.800;2022-12-29T17:39:57;8.90;99.90
22779;DHT22;11556;51.194;3.800;2022-12-29T17:42:23;8.90;99.90
22779;DHT22;11556;51.194;3.800;2022-12-29T17:44:49;9.00;99.90
22779;DHT22;11556;51.194;3.800;2022-12-29T17:47:15;8.90;99.90
22779;DHT22;11556;51.194;3.800;2022-12-29T17:49:41;8.80;99.90
22779;DHT22;11556;51.194;3.800;2022-12-29T17:52:11;8.90;99.90
22779;DHT22;11556;51.194;3.800;2022-12-29T17:54:51;8.90;99.90
22779;DHT22;11556;51.194;3.800;2022-12-29T17:57:18;8.90;99.90